sensor_id;sensor_type;location;lat;lon;timestamp;P1;durP1;ratioP1;P2;durP2;ratioP2
23232;SDS011;11785;49.500;8.288;2022-10-31T00:02:06;10.00;;;6.85;;
23232;SDS011;11785;49.500;8.288;2022-10-31T00:04:31;11.30;;;6.40;;
23232;SDS011;11785;49.500;8.288;2022-10-31T00:06:57;12.15;;;6.45;;
23232;SDS011;11785;49.500;8.288;2022-10-31T00:09:23;11.88;;;6.13;;
23232;SDS011;11785;49.500;8.288;2022-10-31T00:11:49;9.73;;;5.70;;
23232;SDS011;11785;49.500;8.288;2022-10-31T00:14:14;9.15;;;4.90;;
23232;SDS011;11785;49.500;8.288;2022-10-31T00:16:40;12.88;;;5.30;;
23232;SDS011;11785;49.500;8.288;2022-10-31T00:19:06;10.55;;;5.32;;
23232;SDS011;11785;49.500;8.288;2022-10-31T00:21:32;12.13;;;6.10;;
23232;SDS011;11785;49.500;8.288;2022-10-31T00:23:58;15.68;;;5.85;;
23232;SDS011;11785;49.500;8.288;2022-10-31T00:26:26;10.02;;;5.25;;
23232;SDS011;11785;49.500;8.288;2022-10-31T00:28:52;12.90;;;6.47;;
23232;SDS011;11785;49.500;8.288;2022-10-31T00:31:18;13.23;;;6.60;;
23232;SDS011;11785;49.500;8.288;2022-10-31T00:33:44;12.65;;;6.43;;
23232;SDS011;11785;49.500;8.288;2022-10-31T00:36:13;9.13;;;6.20;;
23232;SDS011;11785;49.500;8.288;2022-10-31T00:38:41;10.32;;;6.53;;
23232;SDS011;11785;49.500;8.288;2022-10-31T00:41:07;11.30;;;5.57;;
23232;SDS011;11785;49.500;8.288;2022-10-31T00:43:33;10.50;;;5.97;;
23232;SDS011;11785;49.500;8.288;2022-10-31T00:45:59;10.48;;;6.30;;
23232;SDS011;11785;49.500;8.288;2022-10-31T00:48:24;11.18;;;6.78;;
23232;SDS011;11785;49.500;8.288;2022-10-31T00:50:50;9.95;;;5.95;;
23232;SDS011;11785;49.500;8.288;2022-10-31T00:53:15;10.48;;;6.57;;
23232;SDS011;11785;49.500;8.288;2022-10-31T00:55:41;9.63;;;6.70;;
23232;SDS011;11785;49.500;8.288;2022-10-31T00:58:06;13.18;;;6.60;;
23232;SDS011;11785;49.500;8.288;2022-10-31T01:00:32;11.35;;;6.47;;
23232;SDS011;11785;49.500;8.288;2022-10-31T01:02:58;12.15;;;6.18;;
23232;SDS011;11785;49.500;8.288;2022-10-31T01:05:23;7.78;;;6.32;;
23232;SDS011;11785;49.500;8.288;2022-10-31T01:07:49;12.30;;;6.15;;
23232;SDS011;11785;49.500;8.288;2022-10-31T01:10:15;13.95;;;6.60;;
23232;SDS011;11785;49.500;8.288;2022-10-31T01:12:44;11.85;;;7.00;;
23232;SDS011;11785;49.500;8.288;2022-10-31T01:15:13;14.85;;;7.25;;
23232;SDS011;11785;49.500;8.288;2022-10-31T01:17:42;11.48;;;5.55;;
23232;SDS011;11785;49.500;8.288;2022-10-31T01:20:08;16.00;;;6.80;;
23232;SDS011;11785;49.500;8.288;2022-10-31T01:22:34;15.43;;;6.97;;
23232;SDS011;11785;49.500;8.288;2022-10-31T01:25:00;10.73;;;6.95;;
23232;SDS011;11785;49.500;8.288;2022-10-31T01:27:25;11.32;;;6.40;;
23232;SDS011;11785;49.500;8.288;2022-10-31T01:29:51;11.77;;;6.63;;
23232;SDS011;11785;49.500;8.288;2022-10-31T01:32:16;12.45;;;7.07;;
23232;SDS011;11785;49.500;8.288;2022-10-31T01:34:42;9.65;;;6.32;;
23232;SDS011;11785;49.500;8.288;2022-10-31T01:37:08;9.88;;;6.90;;
23232;SDS011;11785;49.500;8.288;2022-10-31T01:39:33;13.55;;;7.60;;
23232;SDS011;11785;49.500;8.288;2022-10-31T01:41:59;9.85;;;7.07;;
23232;SDS011;11785;49.500;8.288;2022-10-31T01:49:47;12.25;;;7.63;;
23232;SDS011;11785;49.500;8.288;2022-10-31T01:54:56;16.70;;;8.30;;
23232;SDS011;11785;49.500;8.288;2022-10-31T01:57:26;12.43;;;7.78;;
23232;SDS011;11785;49.500;8.288;2022-10-31T01:59:54;19.55;;;7.93;;
23232;SDS011;11785;49.500;8.288;2022-10-31T02:02:23;19.33;;;8.15;;
23232;SDS011;11785;49.500;8.288;2022-10-31T02:04:50;13.25;;;7.40;;
23232;SDS011;11785;49.500;8.288;2022-10-31T02:07:18;13.95;;;6.95;;
23232;SDS011;11785;49.500;8.288;2022-10-31T02:09:50;13.10;;;6.68;;
23232;SDS011;11785;49.500;8.288;2022-10-31T02:12:17;8.32;;;6.20;;
23232;SDS011;11785;49.500;8.288;2022-10-31T02:14:44;10.50;;;6.20;;
23232;SDS011;11785;49.500;8.288;2022-10-31T02:17:09;12.63;;;6.13;;
23232;SDS011;11785;49.500;8.288;2022-10-31T02:22:38;14.82;;;6.38;;
23232;SDS011;11785;49.500;8.288;2022-10-31T02:30:41;18.90;;;6.28;;
23232;SDS011;11785;49.500;8.288;2022-10-31T02:33:22;10.05;;;6.18;;
23232;SDS011;11785;49.500;8.288;2022-10-31T02:39:02;12.43;;;6.20;;
23232;SDS011;11785;49.500;8.288;2022-10-31T02:44:22;14.85;;;6.70;;
23232;SDS011;11785;49.500;8.288;2022-10-31T02:46:59;9.77;;;6.38;;
23232;SDS011;11785;49.500;8.288;2022-10-31T02:52:25;15.05;;;6.55;;
23232;SDS011;11785;49.500;8.288;2022-10-31T02:54:52;10.02;;;6.07;;
23232;SDS011;11785;49.500;8.288;2022-10-31T02:57:20;13.10;;;5.75;;
23232;SDS011;11785;49.500;8.288;2022-10-31T02:59:56;11.47;;;5.73;;
23232;SDS011;11785;49.500;8.288;2022-10-31T03:11:08;9.77;;;5.80;;
23232;SDS011;11785;49.500;8.288;2022-10-31T03:16:14;12.10;;;6.38;;
23232;SDS011;11785;49.500;8.288;2022-10-31T03:18:50;14.05;;;7.45;;
23232;SDS011;11785;49.500;8.288;2022-10-31T03:24:11;11.23;;;6.15;;
23232;SDS011;11785;49.500;8.288;2022-10-31T03:26:41;16.52;;;6.78;;
23232;SDS011;11785;49.500;8.288;2022-10-31T03:29:10;13.90;;;7.03;;
23232;SDS011;11785;49.500;8.288;2022-10-31T03:31:40;20.00;;;7.15;;
23232;SDS011;11785;49.500;8.288;2022-10-31T03:34:11;8.88;;;4.95;;
23232;SDS011;11785;49.500;8.288;2022-10-31T03:36:39;17.05;;;7.25;;
23232;SDS011;11785;49.500;8.288;2022-10-31T03:39:07;14.07;;;6.53;;
23232;SDS011;11785;49.500;8.288;2022-10-31T03:41:42;13.80;;;7.10;;
23232;SDS011;11785;49.500;8.288;2022-10-31T03:44:12;19.95;;;7.78;;
23232;SDS011;11785;49.500;8.288;2022-10-31T03:46:42;13.75;;;6.80;;
23232;SDS011;11785;49.500;8.288;2022-10-31T03:49:08;12.38;;;7.15;;
23232;SDS011;11785;49.500;8.288;2022-10-31T03:54:38;14.07;;;7.60;;
23232;SDS011;11785;49.500;8.288;2022-10-31T03:59:51;16.95;;;8.25;;
23232;SDS011;11785;49.500;8.288;2022-10-31T04:02:25;15.60;;;7.95;;
23232;SDS011;11785;49.500;8.288;2022-10-31T04:04:55;18.13;;;8.13;;
23232;SDS011;11785;49.500;8.288;2022-10-31T04:07:21;15.30;;;7.50;;
23232;SDS011;11785;49.500;8.288;2022-10-31T04:09:51;17.60;;;7.70;;
23232;SDS011;11785;49.500;8.288;2022-10-31T04:12:18;15.85;;;7.78;;
23232;SDS011;11785;49.500;8.288;2022-10-31T04:14:46;18.60;;;7.20;;
23232;SDS011;11785;49.500;8.288;2022-10-31T04:17:14;12.77;;;6.82;;
23232;SDS011;11785;49.500;8.288;2022-10-31T04:19:41;16.48;;;7.55;;
23232;SDS011;11785;49.500;8.288;2022-10-31T04:22:07;13.88;;;7.30;;
23232;SDS011;11785;49.500;8.288;2022-10-31T04:24:32;13.90;;;7.15;;
23232;SDS011;11785;49.500;8.288;2022-10-31T04:26:58;11.50;;;7.45;;
23232;SDS011;11785;49.500;8.288;2022-10-31T04:29:23;13.48;;;7.20;;
23232;SDS011;11785;49.500;8.288;2022-10-31T04:31:49;13.48;;;6.90;;
23232;SDS011;11785;49.500;8.288;2022-10-31T04:34:15;18.40;;;6.55;;
23232;SDS011;11785;49.500;8.288;2022-10-31T04:36:40;11.98;;;6.35;;
23232;SDS011;11785;49.500;8.288;2022-10-31T04:39:06;10.70;;;5.38;;
23232;SDS011;11785;49.500;8.288;2022-10-31T04:41:31;14.00;;;6.35;;
23232;SDS011;11785;49.500;8.288;2022-10-31T04:43:57;9.07;;;5.88;;
23232;SDS011;11785;49.500;8.288;2022-10-31T04:46:23;10.48;;;6.55;;
23232;SDS011;11785;49.500;8.288;2022-10-31T04:48:48;7.78;;;5.28;;
23232;SDS011;11785;49.500;8.288;2022-10-31T04:51:14;10.65;;;6.43;;
23232;SDS011;11785;49.500;8.288;2022-10-31T04:53:39;15.35;;;6.40;;
23232;SDS011;11785;49.500;8.288;2022-10-31T04:56:05;11.23;;;6.47;;
23232;SDS011;11785;49.500;8.288;2022-10-31T04:58:31;15.35;;;6.65;;
23232;SDS011;11785;49.500;8.288;2022-10-31T05:00:56;9.32;;;6.20;;
23232;SDS011;11785;49.500;8.288;2022-10-31T05:03:22;10.90;;;5.88;;
23232;SDS011;11785;49.500;8.288;2022-10-31T05:05:48;12.02;;;6.10;;
23232;SDS011;11785;49.500;8.288;2022-10-31T05:08:14;13.82;;;5.53;;
23232;SDS011;11785;49.500;8.288;2022-10-31T05:10:39;9.18;;;5.97;;
23232;SDS011;11785;49.500;8.288;2022-10-31T05:13:05;13.55;;;6.60;;
23232;SDS011;11785;49.500;8.288;2022-10-31T05:15:31;13.43;;;6.65;;
23232;SDS011;11785;49.500;8.288;2022-10-31T05:17:57;10.23;;;5.68;;
23232;SDS011;11785;49.500;8.288;2022-10-31T05:20:24;13.68;;;6.10;;
23232;SDS011;11785;49.500;8.288;2022-10-31T05:22:52;10.23;;;5.88;;
23232;SDS011;11785;49.500;8.288;2022-10-31T05:25:19;11.15;;;6.15;;
23232;SDS011;11785;49.500;8.288;2022-10-31T05:27:47;7.68;;;5.45;;
23232;SDS011;11785;49.500;8.288;2022-10-31T05:30:15;10.63;;;6.68;;
23232;SDS011;11785;49.500;8.288;2022-10-31T05:32:43;13.65;;;5.90;;
23232;SDS011;11785;49.500;8.288;2022-10-31T05:35:11;13.18;;;5.72;;
23232;SDS011;11785;49.500;8.288;2022-10-31T05:37:38;11.27;;;6.18;;
23232;SDS011;11785;49.500;8.288;2022-10-31T05:40:05;12.88;;;6.10;;
23232;SDS011;11785;49.500;8.288;2022-10-31T05:42:32;14.52;;;5.97;;
23232;SDS011;11785;49.500;8.288;2022-10-31T05:44:58;9.95;;;6.47;;
23232;SDS011;11785;49.500;8.288;2022-10-31T05:47:23;14.75;;;6.40;;
23232;SDS011;11785;49.500;8.288;2022-10-31T05:49:49;14.27;;;6.18;;
23232;SDS011;11785;49.500;8.288;2022-10-31T05:52:16;17.35;;;6.63;;
23232;SDS011;11785;49.500;8.288;2022-10-31T05:54:41;14.88;;;5.97;;
23232;SDS011;11785;49.500;8.288;2022-10-31T05:57:07;12.10;;;6.45;;
23232;SDS011;11785;49.500;8.288;2022-10-31T05:59:33;9.50;;;6.60;;
23232;SDS011;11785;49.500;8.288;2022-10-31T06:01:59;13.93;;;6.60;;
23232;SDS011;11785;49.500;8.288;2022-10-31T06:04:24;19.45;;;6.60;;
23232;SDS011;11785;49.500;8.288;2022-10-31T06:06:50;15.45;;;7.53;;
23232;SDS011;11785;49.500;8.288;2022-10-31T06:09:15;15.18;;;6.85;;
23232;SDS011;11785;49.500;8.288;2022-10-31T06:11:41;13.73;;;6.53;;
23232;SDS011;11785;49.500;8.288;2022-10-31T06:14:06;10.98;;;7.28;;
23232;SDS011;11785;49.500;8.288;2022-10-31T06:16:32;13.20;;;6.82;;
23232;SDS011;11785;49.500;8.288;2022-10-31T06:18:58;20.73;;;7.75;;
23232;SDS011;11785;49.500;8.288;2022-10-31T06:21:24;16.52;;;7.90;;
23232;SDS011;11785;49.500;8.288;2022-10-31T06:23:49;14.63;;;7.18;;
23232;SDS011;11785;49.500;8.288;2022-10-31T06:26:15;12.75;;;8.00;;
23232;SDS011;11785;49.500;8.288;2022-10-31T06:28:41;17.60;;;7.97;;
23232;SDS011;11785;49.500;8.288;2022-10-31T06:31:06;13.95;;;8.30;;
23232;SDS011;11785;49.500;8.288;2022-10-31T06:33:32;19.52;;;8.70;;
23232;SDS011;11785;49.500;8.288;2022-10-31T06:35:59;13.05;;;7.78;;
23232;SDS011;11785;49.500;8.288;2022-10-31T06:38:25;13.95;;;8.07;;
23232;SDS011;11785;49.500;8.288;2022-10-31T06:40:52;18.23;;;7.85;;
23232;SDS011;11785;49.500;8.288;2022-10-31T06:43:18;13.18;;;8.32;;
23232;SDS011;11785;49.500;8.288;2022-10-31T06:45:43;18.05;;;7.93;;
23232;SDS011;11785;49.500;8.288;2022-10-31T06:48:09;14.68;;;7.85;;
23232;SDS011;11785;49.500;8.288;2022-10-31T06:53:00;17.83;;;8.57;;
23232;SDS011;11785;49.500;8.288;2022-10-31T06:55:26;15.48;;;8.07;;
23232;SDS011;11785;49.500;8.288;2022-10-31T06:57:55;16.63;;;7.80;;
23232;SDS011;11785;49.500;8.288;2022-10-31T07:00:23;17.10;;;7.75;;
23232;SDS011;11785;49.500;8.288;2022-10-31T07:02:59;22.10;;;8.13;;
23232;SDS011;11785;49.500;8.288;2022-10-31T07:05:26;16.85;;;6.80;;
23232;SDS011;11785;49.500;8.288;2022-10-31T07:07:59;18.33;;;7.57;;
23232;SDS011;11785;49.500;8.288;2022-10-31T07:10:28;9.60;;;7.03;;
23232;SDS011;11785;49.500;8.288;2022-10-31T07:12:55;18.48;;;7.28;;
23232;SDS011;11785;49.500;8.288;2022-10-31T07:15:22;17.52;;;7.43;;
23232;SDS011;11785;49.500;8.288;2022-10-31T07:17:49;18.00;;;7.65;;
23232;SDS011;11785;49.500;8.288;2022-10-31T07:20:15;14.30;;;7.35;;
23232;SDS011;11785;49.500;8.288;2022-10-31T07:22:41;17.08;;;6.80;;
23232;SDS011;11785;49.500;8.288;2022-10-31T07:25:06;18.60;;;7.63;;
23232;SDS011;11785;49.500;8.288;2022-10-31T07:27:36;16.05;;;7.07;;
23232;SDS011;11785;49.500;8.288;2022-10-31T07:30:03;18.83;;;7.38;;
23232;SDS011;11785;49.500;8.288;2022-10-31T07:32:36;18.17;;;8.50;;
23232;SDS011;11785;49.500;8.288;2022-10-31T07:35:03;18.73;;;7.63;;
23232;SDS011;11785;49.500;8.288;2022-10-31T07:37:29;16.42;;;7.38;;
23232;SDS011;11785;49.500;8.288;2022-10-31T07:39:55;15.05;;;7.95;;
23232;SDS011;11785;49.500;8.288;2022-10-31T07:42:20;19.77;;;7.50;;
23232;SDS011;11785;49.500;8.288;2022-10-31T07:44:46;15.68;;;7.43;;
23232;SDS011;11785;49.500;8.288;2022-10-31T07:47:11;11.95;;;7.38;;
23232;SDS011;11785;49.500;8.288;2022-10-31T07:49:37;17.77;;;7.38;;
23232;SDS011;11785;49.500;8.288;2022-10-31T07:52:03;14.15;;;7.72;;
23232;SDS011;11785;49.500;8.288;2022-10-31T07:54:29;14.60;;;7.82;;
23232;SDS011;11785;49.500;8.288;2022-10-31T07:56:54;11.23;;;7.72;;
23232;SDS011;11785;49.500;8.288;2022-10-31T07:59:20;20.98;;;8.35;;
23232;SDS011;11785;49.500;8.288;2022-10-31T08:01:45;12.70;;;7.47;;
23232;SDS011;11785;49.500;8.288;2022-10-31T08:04:11;16.83;;;8.07;;
23232;SDS011;11785;49.500;8.288;2022-10-31T08:06:36;18.30;;;8.10;;
23232;SDS011;11785;49.500;8.288;2022-10-31T08:09:02;19.45;;;8.25;;
23232;SDS011;11785;49.500;8.288;2022-10-31T08:11:28;13.15;;;7.88;;
23232;SDS011;11785;49.500;8.288;2022-10-31T08:13:53;16.33;;;8.65;;
23232;SDS011;11785;49.500;8.288;2022-10-31T08:16:19;18.20;;;8.57;;
23232;SDS011;11785;49.500;8.288;2022-10-31T08:18:44;16.08;;;8.60;;
23232;SDS011;11785;49.500;8.288;2022-10-31T08:21:10;13.65;;;8.70;;
23232;SDS011;11785;49.500;8.288;2022-10-31T08:23:35;14.80;;;8.35;;
23232;SDS011;11785;49.500;8.288;2022-10-31T08:26:01;20.40;;;8.60;;
23232;SDS011;11785;49.500;8.288;2022-10-31T08:28:26;11.77;;;7.60;;
23232;SDS011;11785;49.500;8.288;2022-10-31T08:30:52;21.20;;;8.90;;
23232;SDS011;11785;49.500;8.288;2022-10-31T08:33:18;16.05;;;8.23;;
23232;SDS011;11785;49.500;8.288;2022-10-31T08:35:44;14.73;;;8.38;;
23232;SDS011;11785;49.500;8.288;2022-10-31T08:38:10;14.27;;;8.10;;
23232;SDS011;11785;49.500;8.288;2022-10-31T08:40:37;15.85;;;8.70;;
23232;SDS011;11785;49.500;8.288;2022-10-31T08:43:04;23.52;;;9.40;;
23232;SDS011;11785;49.500;8.288;2022-10-31T08:45:32;18.65;;;9.82;;
23232;SDS011;11785;49.500;8.288;2022-10-31T08:47:59;23.02;;;10.20;;
23232;SDS011;11785;49.500;8.288;2022-10-31T08:50:27;17.15;;;9.23;;
23232;SDS011;11785;49.500;8.288;2022-10-31T08:52:53;19.70;;;9.82;;
23232;SDS011;11785;49.500;8.288;2022-10-31T08:55:24;19.67;;;9.57;;
23232;SDS011;11785;49.500;8.288;2022-10-31T08:57:53;20.15;;;9.07;;
23232;SDS011;11785;49.500;8.288;2022-10-31T09:00:20;18.13;;;9.40;;
23232;SDS011;11785;49.500;8.288;2022-10-31T09:02:45;20.52;;;8.98;;
23232;SDS011;11785;49.500;8.288;2022-10-31T09:05:11;20.52;;;8.80;;
23232;SDS011;11785;49.500;8.288;2022-10-31T09:07:36;18.92;;;8.35;;
23232;SDS011;11785;49.500;8.288;2022-10-31T09:10:02;13.30;;;8.13;;
23232;SDS011;11785;49.500;8.288;2022-10-31T09:12:28;19.10;;;8.10;;
23232;SDS011;11785;49.500;8.288;2022-10-31T09:14:53;19.63;;;7.93;;
23232;SDS011;11785;49.500;8.288;2022-10-31T09:17:19;20.92;;;8.60;;
23232;SDS011;11785;49.500;8.288;2022-10-31T09:19:44;24.75;;;8.52;;
23232;SDS011;11785;49.500;8.288;2022-10-31T09:22:10;78.70;;;16.63;;
23232;SDS011;11785;49.500;8.288;2022-10-31T09:24:35;94.43;;;16.60;;
23232;SDS011;11785;49.500;8.288;2022-10-31T09:27:01;24.52;;;9.27;;
23232;SDS011;11785;49.500;8.288;2022-10-31T09:29:26;34.33;;;9.75;;
23232;SDS011;11785;49.500;8.288;2022-10-31T09:31:52;17.58;;;8.60;;
23232;SDS011;11785;49.500;8.288;2022-10-31T09:34:17;14.60;;;7.82;;
23232;SDS011;11785;49.500;8.288;2022-10-31T09:36:43;20.50;;;8.32;;
23232;SDS011;11785;49.500;8.288;2022-10-31T09:39:10;29.25;;;8.80;;
23232;SDS011;11785;49.500;8.288;2022-10-31T09:44:28;16.00;;;7.88;;
23232;SDS011;11785;49.500;8.288;2022-10-31T09:50:07;19.40;;;8.52;;
23232;SDS011;11785;49.500;8.288;2022-10-31T09:55:35;13.45;;;7.82;;
23232;SDS011;11785;49.500;8.288;2022-10-31T09:58:08;13.88;;;8.23;;
23232;SDS011;11785;49.500;8.288;2022-10-31T10:00:48;15.55;;;8.65;;
23232;SDS011;11785;49.500;8.288;2022-10-31T10:03:24;19.40;;;8.70;;
23232;SDS011;11785;49.500;8.288;2022-10-31T10:06:14;19.15;;;8.57;;
23232;SDS011;11785;49.500;8.288;2022-10-31T10:08:49;15.80;;;8.23;;
23232;SDS011;11785;49.500;8.288;2022-10-31T10:11:33;20.33;;;8.20;;
23232;SDS011;11785;49.500;8.288;2022-10-31T10:32:50;18.42;;;10.05;;
23232;SDS011;11785;49.500;8.288;2022-10-31T10:35:21;23.02;;;10.43;;
23232;SDS011;11785;49.500;8.288;2022-10-31T10:38:00;18.40;;;9.60;;
23232;SDS011;11785;49.500;8.288;2022-10-31T10:40:35;19.08;;;9.90;;
23232;SDS011;11785;49.500;8.288;2022-10-31T10:43:22;16.08;;;8.52;;
23232;SDS011;11785;49.500;8.288;2022-10-31T10:48:44;20.85;;;9.63;;
23232;SDS011;11785;49.500;8.288;2022-10-31T10:51:23;23.55;;;9.77;;
23232;SDS011;11785;49.500;8.288;2022-10-31T10:54:12;18.15;;;10.23;;
23232;SDS011;11785;49.500;8.288;2022-10-31T10:59:39;15.05;;;8.70;;
23232;SDS011;11785;49.500;8.288;2022-10-31T11:02:15;16.73;;;9.50;;
23232;SDS011;11785;49.500;8.288;2022-10-31T11:04:47;22.77;;;9.60;;
23232;SDS011;11785;49.500;8.288;2022-10-31T11:07:16;18.65;;;9.43;;
23232;SDS011;11785;49.500;8.288;2022-10-31T11:09:42;17.45;;;9.00;;
23232;SDS011;11785;49.500;8.288;2022-10-31T11:12:09;21.92;;;8.82;;
23232;SDS011;11785;49.500;8.288;2022-10-31T11:14:56;18.33;;;8.65;;
23232;SDS011;11785;49.500;8.288;2022-10-31T11:17:34;22.05;;;9.65;;
23232;SDS011;11785;49.500;8.288;2022-10-31T11:22:39;16.25;;;9.85;;
23232;SDS011;11785;49.500;8.288;2022-10-31T11:27:58;15.60;;;8.90;;
23232;SDS011;11785;49.500;8.288;2022-10-31T11:30:24;21.20;;;9.80;;
23232;SDS011;11785;49.500;8.288;2022-10-31T11:32:50;15.52;;;9.43;;
23232;SDS011;11785;49.500;8.288;2022-10-31T11:35:17;19.30;;;9.85;;
23232;SDS011;11785;49.500;8.288;2022-10-31T11:37:45;21.17;;;8.88;;
23232;SDS011;11785;49.500;8.288;2022-10-31T11:40:19;17.45;;;9.07;;
23232;SDS011;11785;49.500;8.288;2022-10-31T11:42:47;21.88;;;9.80;;
23232;SDS011;11785;49.500;8.288;2022-10-31T11:47:41;16.30;;;8.80;;
23232;SDS011;11785;49.500;8.288;2022-10-31T11:50:10;20.17;;;9.18;;
23232;SDS011;11785;49.500;8.288;2022-10-31T11:52:43;15.60;;;8.43;;
23232;SDS011;11785;49.500;8.288;2022-10-31T11:57:47;22.90;;;9.23;;
23232;SDS011;11785;49.500;8.288;2022-10-31T12:02:47;19.25;;;9.38;;
23232;SDS011;11785;49.500;8.288;2022-10-31T12:05:23;18.35;;;9.20;;
23232;SDS011;11785;49.500;8.288;2022-10-31T12:07:56;19.50;;;9.48;;
23232;SDS011;11785;49.500;8.288;2022-10-31T12:10:23;23.90;;;10.07;;
23232;SDS011;11785;49.500;8.288;2022-10-31T12:16:12;19.45;;;10.38;;
23232;SDS011;11785;49.500;8.288;2022-10-31T12:27:30;19.02;;;9.85;;
23232;SDS011;11785;49.500;8.288;2022-10-31T12:32:30;18.92;;;9.50;;
23232;SDS011;11785;49.500;8.288;2022-10-31T12:45:57;21.25;;;9.43;;
23232;SDS011;11785;49.500;8.288;2022-10-31T12:51:18;16.33;;;8.57;;
23232;SDS011;11785;49.500;8.288;2022-10-31T12:54:45;17.48;;;9.18;;
23232;SDS011;11785;49.500;8.288;2022-10-31T12:57:26;15.40;;;9.10;;
23232;SDS011;11785;49.500;8.288;2022-10-31T13:02:55;17.48;;;8.90;;
23232;SDS011;11785;49.500;8.288;2022-10-31T13:05:30;21.75;;;9.90;;
23232;SDS011;11785;49.500;8.288;2022-10-31T13:08:02;22.35;;;9.38;;
23232;SDS011;11785;49.500;8.288;2022-10-31T13:10:47;21.25;;;10.13;;
23232;SDS011;11785;49.500;8.288;2022-10-31T13:13:18;22.70;;;8.93;;
23232;SDS011;11785;49.500;8.288;2022-10-31T13:15:51;27.85;;;9.27;;
23232;SDS011;11785;49.500;8.288;2022-10-31T13:18:57;20.10;;;9.48;;
23232;SDS011;11785;49.500;8.288;2022-10-31T13:21:21;19.35;;;9.57;;
23232;SDS011;11785;49.500;8.288;2022-10-31T13:23:52;18.00;;;10.00;;
23232;SDS011;11785;49.500;8.288;2022-10-31T13:29:11;19.85;;;8.75;;
23232;SDS011;11785;49.500;8.288;2022-10-31T13:31:45;25.38;;;9.35;;
23232;SDS011;11785;49.500;8.288;2022-10-31T13:34:17;20.40;;;8.80;;
23232;SDS011;11785;49.500;8.288;2022-10-31T13:36:49;22.00;;;8.30;;
23232;SDS011;11785;49.500;8.288;2022-10-31T13:42:12;17.05;;;8.07;;
23232;SDS011;11785;49.500;8.288;2022-10-31T13:45:13;14.32;;;7.95;;
23232;SDS011;11785;49.500;8.288;2022-10-31T13:47:43;18.52;;;8.68;;
23232;SDS011;11785;49.500;8.288;2022-10-31T13:50:24;18.02;;;7.97;;
23232;SDS011;11785;49.500;8.288;2022-10-31T13:53:37;14.20;;;7.45;;
23232;SDS011;11785;49.500;8.288;2022-10-31T13:55:49;21.90;;;8.50;;
23232;SDS011;11785;49.500;8.288;2022-10-31T13:58:30;22.90;;;8.48;;
23232;SDS011;11785;49.500;8.288;2022-10-31T14:03:44;14.50;;;7.20;;
23232;SDS011;11785;49.500;8.288;2022-10-31T14:06:21;15.35;;;7.85;;
23232;SDS011;11785;49.500;8.288;2022-10-31T14:08:59;16.80;;;7.88;;
23232;SDS011;11785;49.500;8.288;2022-10-31T14:11:25;14.77;;;7.18;;
23232;SDS011;11785;49.500;8.288;2022-10-31T14:13:52;16.42;;;7.78;;
23232;SDS011;11785;49.500;8.288;2022-10-31T14:16:25;11.00;;;7.18;;
23232;SDS011;11785;49.500;8.288;2022-10-31T14:19:35;11.82;;;6.38;;
23232;SDS011;11785;49.500;8.288;2022-10-31T14:21:44;19.13;;;7.03;;
23232;SDS011;11785;49.500;8.288;2022-10-31T14:26:53;14.18;;;7.00;;
23232;SDS011;11785;49.500;8.288;2022-10-31T14:29:21;13.00;;;7.15;;
23232;SDS011;11785;49.500;8.288;2022-10-31T14:32:06;16.08;;;7.97;;
23232;SDS011;11785;49.500;8.288;2022-10-31T14:34:57;16.95;;;7.43;;
23232;SDS011;11785;49.500;8.288;2022-10-31T14:45:54;15.32;;;6.22;;
23232;SDS011;11785;49.500;8.288;2022-10-31T14:51:38;13.57;;;6.80;;
23232;SDS011;11785;49.500;8.288;2022-10-31T14:54:06;16.17;;;7.03;;
23232;SDS011;11785;49.500;8.288;2022-10-31T14:56:40;10.30;;;6.20;;
23232;SDS011;11785;49.500;8.288;2022-10-31T14:59:20;15.25;;;6.55;;
23232;SDS011;11785;49.500;8.288;2022-10-31T15:01:55;12.07;;;6.72;;
23232;SDS011;11785;49.500;8.288;2022-10-31T15:04:29;13.60;;;6.43;;
23232;SDS011;11785;49.500;8.288;2022-10-31T15:07:02;15.77;;;6.38;;
23232;SDS011;11785;49.500;8.288;2022-10-31T15:09:38;12.40;;;6.20;;
23232;SDS011;11785;49.500;8.288;2022-10-31T15:12:41;28.92;;;8.93;;
23232;SDS011;11785;49.500;8.288;2022-10-31T15:15:18;75.22;;;32.53;;
23232;SDS011;11785;49.500;8.288;2022-10-31T15:17:56;44.38;;;22.17;;
23232;SDS011;11785;49.500;8.288;2022-10-31T15:20:24;40.75;;;16.60;;
23232;SDS011;11785;49.500;8.288;2022-10-31T15:22:53;24.00;;;10.40;;
23232;SDS011;11785;49.500;8.288;2022-10-31T15:25:22;25.13;;;9.13;;
23232;SDS011;11785;49.500;8.288;2022-10-31T15:27:50;30.17;;;11.75;;
23232;SDS011;11785;49.500;8.288;2022-10-31T15:30:18;20.38;;;9.98;;
23232;SDS011;11785;49.500;8.288;2022-10-31T15:32:45;18.92;;;9.27;;
23232;SDS011;11785;49.500;8.288;2022-10-31T15:35:18;16.60;;;9.10;;
23232;SDS011;11785;49.500;8.288;2022-10-31T15:37:46;18.27;;;9.05;;
23232;SDS011;11785;49.500;8.288;2022-10-31T15:40:16;21.75;;;10.43;;
23232;SDS011;11785;49.500;8.288;2022-10-31T15:42:45;21.93;;;10.57;;
23232;SDS011;11785;49.500;8.288;2022-10-31T15:45:27;25.52;;;11.02;;
23232;SDS011;11785;49.500;8.288;2022-10-31T15:47:56;19.33;;;9.63;;
23232;SDS011;11785;49.500;8.288;2022-10-31T15:50:31;24.05;;;11.43;;
23232;SDS011;11785;49.500;8.288;2022-10-31T15:53:02;26.75;;;12.82;;
23232;SDS011;11785;49.500;8.288;2022-10-31T15:55:31;19.95;;;11.63;;
23232;SDS011;11785;49.500;8.288;2022-10-31T15:58:02;24.23;;;11.40;;
23232;SDS011;11785;49.500;8.288;2022-10-31T16:05:47;28.75;;;12.50;;
23232;SDS011;11785;49.500;8.288;2022-10-31T16:10:55;22.30;;;12.70;;
23232;SDS011;11785;49.500;8.288;2022-10-31T16:13:42;22.83;;;12.80;;
23232;SDS011;11785;49.500;8.288;2022-10-31T16:16:18;28.50;;;14.25;;
23232;SDS011;11785;49.500;8.288;2022-10-31T16:18:47;23.02;;;12.57;;
23232;SDS011;11785;49.500;8.288;2022-10-31T16:21:14;23.77;;;12.07;;
23232;SDS011;11785;49.500;8.288;2022-10-31T16:23:44;23.05;;;12.18;;
23232;SDS011;11785;49.500;8.288;2022-10-31T16:26:20;21.40;;;10.95;;
23232;SDS011;11785;49.500;8.288;2022-10-31T16:28:52;27.90;;;11.50;;
23232;SDS011;11785;49.500;8.288;2022-10-31T16:31:26;21.50;;;11.02;;
23232;SDS011;11785;49.500;8.288;2022-10-31T16:34:04;24.13;;;11.02;;
23232;SDS011;11785;49.500;8.288;2022-10-31T16:36:35;21.75;;;10.98;;
23232;SDS011;11785;49.500;8.288;2022-10-31T16:39:03;23.88;;;11.30;;
23232;SDS011;11785;49.500;8.288;2022-10-31T16:41:29;38.78;;;13.80;;
23232;SDS011;11785;49.500;8.288;2022-10-31T16:44:03;28.30;;;11.43;;
23232;SDS011;11785;49.500;8.288;2022-10-31T16:46:31;20.92;;;11.32;;
23232;SDS011;11785;49.500;8.288;2022-10-31T16:48:57;27.95;;;11.65;;
23232;SDS011;11785;49.500;8.288;2022-10-31T16:51:22;23.73;;;11.80;;
23232;SDS011;11785;49.500;8.288;2022-10-31T16:53:50;25.77;;;12.57;;
23232;SDS011;11785;49.500;8.288;2022-10-31T16:56:18;24.23;;;11.27;;
23232;SDS011;11785;49.500;8.288;2022-10-31T16:58:52;24.83;;;11.52;;
23232;SDS011;11785;49.500;8.288;2022-10-31T17:01:18;25.08;;;14.27;;
23232;SDS011;11785;49.500;8.288;2022-10-31T17:03:43;28.48;;;15.15;;
23232;SDS011;11785;49.500;8.288;2022-10-31T17:06:12;26.48;;;13.68;;
23232;SDS011;11785;49.500;8.288;2022-10-31T17:08:39;22.60;;;12.98;;
23232;SDS011;11785;49.500;8.288;2022-10-31T17:11:04;29.13;;;12.10;;
23232;SDS011;11785;49.500;8.288;2022-10-31T17:13:31;23.25;;;10.95;;
23232;SDS011;11785;49.500;8.288;2022-10-31T17:15:59;20.08;;;11.52;;
23232;SDS011;11785;49.500;8.288;2022-10-31T17:18:26;18.40;;;10.02;;
23232;SDS011;11785;49.500;8.288;2022-10-31T17:20:56;17.42;;;11.00;;
23232;SDS011;11785;49.500;8.288;2022-10-31T17:23:23;26.00;;;12.23;;